• Join FlightAware (Why Join?)
  • Login
  • US Flag 
08:26AM EDT


 

Airport Tracker/Info


-or-


 

Live Flight TrackerFlight Track Log ✈ SWA706 ✈ 08-Mar-2014 ✈ KHOU - KCRP

Flight Track Log - Related Links

Times and Time Zones

All times are in EST time to prevent confusion due to time zone crossing. See the SWA706 flight status page for this flight to view local times or setup timezone preferences in your user account.

Time Position Orientation Groundspeed Altitude Reporting Facility
EST Latitude Longitude Course Direction KTS MPH feet Rate Location/Type
08:08PM 29.6333 -95.2653 221° Southwest 131 151 1,100  Level Houston Center
08:09PM 29.5917 -95.2464 158° South 192 221 3,300 2,160 Climbing Houston Center
08:10PM 29.5564 -95.2464 180° South 203 234 4,500 2,340 Climbing Houston Center
08:10PM 29.5247 -95.2497 185° South 264 304 5,700 2,880 Climbing Houston Center
08:11PM 29.4839 -95.2542 185° South 254 292 7,500 3,360 Climbing Houston Center
08:11PM 29.4581 -95.2794 220° Southwest 279 321 9,100 3,180 Climbing Houston Center
08:12PM 29.4333 -95.3211 236° Southwest 277 319 10,800 2,940 Climbing Houston Center
08:13PM 29.3767 -95.4039 232° Southwest 316 364 14,100 3,540 Climbing Houston Center
08:14PM 29.2824 -95.6676 221° Southwest  Level FlightAware Approximate
08:14PM 29.3186 -95.4869 231° Southwest 330 380 18,100  Level Houston Center
08:15PM 29.2561 -95.5700 229° Southwest 338 389 21,400 3,540 Climbing Houston Center
08:16PM 29.1792 -95.6750 230° Southwest 355 409 25,400 2,220 Climbing Houston Center
08:17PM 29.1167 -95.7575 229° Southwest 349 402 26,000 60 Climbing Houston Center
08:18PM 29.0539 -95.8414 229° Southwest 348 400 25,600 -780 Descending Houston Center
08:19PM 28.9925 -95.9247 230° Southwest 348 400 24,500 -1,140 Descending Houston Center
08:20PM 28.9311 -96.0067 229° Southwest 331 381 23,300 -1,080 Descending Houston Center
08:21PM 28.8722 -96.0856 230° Southwest 328 377 22,300 -660 Descending Houston Center
08:22PM 28.8150 -96.1611 229° Southwest 317 365 22,000 -180 Descending Houston Center
08:23PM 28.7558 -96.2397 229° Southwest 320 368 22,000  Level Houston Center
08:24PM 28.6964 -96.3181 229° Southwest 326 375 22,000  Level Houston Center
08:25PM 28.6369 -96.3972 229° Southwest 326 375 22,000  Level Houston Center
08:26PM 28.5653 -96.4914 229° Southwest 327 376 22,000 -420 Level Houston Center
08:27PM 28.5056 -96.5700 229° Southwest 327 376 21,200 -1,380 Descending Houston Center
08:28PM 28.4481 -96.6475 230° Southwest 325 374 19,200 -2,100 Descending Houston Center
08:29PM 28.4139 -96.6903 228° Southwest 324 373 18,000 -2,100 Descending Houston Center
08:29PM 28.3889 -96.7253 231° Southwest 325 374 17,100 -2,100 Descending Houston Center
08:30PM 28.3292 -96.8017 228° Southwest 325 374 14,900 -2,520 Descending Houston Center
08:31PM 28.2797 -96.8811 235° Southwest 319 367 12,300 -2,580 Descending Houston Center
08:31PM 28.2786 -96.8836 243° Southwest 320 368 12,300 -2,280 Level Houston Center
08:32PM 28.2267 -96.9719 236° Southwest 327 376 10,000 -2,340 Descending Houston Center
08:32PM 28.2222 -96.9861 250° West 325 374 9,900 -720 Descending Houston Center
08:33PM 28.1964 -97.0572 248° West 295 339 9,300 -840 Descending Houston Center
08:33PM 28.1878 -97.0728 238° Southwest 299 344 9,100 -1,620 Descending Houston Center
08:34PM 28.1589 -97.1383 243° Southwest 273 314 7,700 -1,800 Descending Houston Center
08:34PM 28.1539 -97.1517 247° West 276 318 7,300 -1,740 Descending Houston Center
08:35PM 28.1297 -97.2161 247° West 278 320 6,000 -1,620 Descending Houston Center
08:35PM 28.1222 -97.2356 246° West 280 322 5,700 -1,140 Descending Houston Center
08:36PM 28.0967 -97.2992 246° West 277 319 4,900 -1,020 Descending Houston Center
08:36PM 28.0911 -97.3144 248° West 273 314 4,700 -1,320 Descending Houston Center
08:37PM 28.0603 -97.3706 238° Southwest 253 291 3,600 -1,380 Descending Houston Center
08:37PM 28.0528 -97.3833 236° Southwest 259 298 3,300 -1,200 Descending Houston Center
08:38PM 28.0231 -97.4350 237° Southwest 249 287 2,400 -1,200 Descending Houston Center
08:38PM 28.0153 -97.4517 242° Southwest 254 292 2,100 -420 Descending Houston Center
08:39PM 27.9906 -97.5036 242° Southwest 233 268 2,000 -120 Descending Houston Center
08:39PM 27.9828 -97.5156 234° Southwest 235 270 2,000  Level Houston Center
08:40PM 27.9539 -97.5536 229° Southwest 210 242 2,000  Level Houston Center
08:40PM 27.9436 -97.5672 229° Southwest 217 250 2,000  Level Houston Center
08:41PM 27.9172 -97.6036 231° Southwest 183 211 2,000  Level Houston Center
08:41PM 27.9094 -97.6147 232° Southwest 197 227 2,000  Level Houston Center
08:42PM 27.8764 -97.6139 179° South 151 174 2,000  Level Houston Center
08:43PM 27.8669 -97.6100 160° South 161 185 2,000 -240 Level Houston Center
08:43PM 27.8439 -97.5875 139° Southeast 143 165 1,800 -420 Descending Houston Center
08:44PM 27.8361 -97.5789 136° Southeast 147 169 1,600 -600 Descending Houston Center
08:44PM 27.8200 -97.5600 134° Southeast 113 130 1,200 -600 Descending Houston Center
08:45PM 27.8139 -97.5533 136° Southeast 115 132 1,000 -600 Descending Houston Center
08:45PM 27.7964 -97.5372 141° Southeast 113 130 600 -600 Descending Houston Center
08:46PM 27.7894 -97.5278 130° Southeast 115 132 400 -300 Descending Houston Center
08:47PM 27.7678 -97.5053 137° Southeast 116 133 200 -240 Descending Houston Center